Albuquerque, NM (87108)

2:05 PM MST on March 05, 2015 (GMT -0700)
Nob Hill | Change Station
CLOSE
Current Station
Personal Weather Station
Location: Albuquerque, NM
Elevation: 5243 ft
Nearby Weather Stations

Elev 5243 ft 35.07 °N, 106.60 °W | Updated 34 seconds ago

Clear
Clear
45.3 °F
Feels Like 45 °F
N
0.0
Wind Variable Wind from West
Gusts 0.0 mph

Today
High -- | Low -- °F
--% Chance of Precip.
Yesterday
High -- | Low -- °F
Precip. -- in
6:30 AM 6:05 PM
Full, 100% visible
Pressure 30.35 in
Visibility 10.0 miles
Clouds Clear
Windchill 45 °F
Dew Point 16 °F
Humidity 31%
Rainfall in
Snow Depth Not available.
UV 6 out of 12
Pollen 4.50 out of 12
Air Quality Not available.
Flu Activity Not available.
METAR KABQ 052052Z VRB03KT 10SM CLR 07/M11 A3034 RMK AO2 SLP277 T00721106 58024

More Conditions Fewer Conditions

Pressure 30.35 in
Visibility 10.0 miles
Clouds Clear
Windchill 45 °F
Dew Point 16 °F
Humidity 31%
Rainfall in
Snow Depth Not available.
UV 6 out of 12
Pollen 4.50 out of 12
Air Quality Not available.
Flu Activity Not available.
METAR KABQ 052052Z VRB03KT 10SM CLR 07/M11 A3034 RMK AO2 SLP277 T00721106 58024

More Conditions Fewer Conditions

10-Day Weather Forecast

Almanac

Astronomy

Mar. 05, 2015 Rise Set
Actual Time
Civil Twilight
Nautical Twilight
Astronomical Twilight
Moon
Length of Visible Light
Length of Day
Tomorrow will be .
, % of the Moon is Illuminated

Today's Extremes

State Highs State Lows

Community

WunderPhotos

Upload Photos

1,802,977 photos uploaded!

WunderBlogs® & News

Nearby

Air Quality

  Air Quality AQ Index Pollutant
Not available.

Snow Depth

Station Depth Elevation

Earthquake Activity

City Distance Mag. Time & Date
Minimum magnitude displayed is 2.5.

Coastal Water Temperatures

Place Temperature

Nearby Weather Stations